MDT,Max TemperatureF,Mean TemperatureF,Min TemperatureF,Max Dew PointF,MeanDew PointF,Min DewpointF,Max Humidity, Mean Humidity, Min Humidity, Max Sea Level PressureIn, Mean Sea Level PressureIn, Min Sea Level PressureIn, Max VisibilityMiles, Mean VisibilityMiles, Min VisibilityMiles, Max Wind SpeedMPH, Mean Wind SpeedMPH, Max Gust SpeedMPH,PrecipitationIn, CloudCover, Events, WindDirDegrees
2013-8-1,86,70,53,56,50,45,87,57,27,30.00,29.91,29.67,10,9,0,44,10,58,0.53,2,Fog-Rain-Thunderstorm,221
2013-8-2,79,66,53,56,50,37,93,58,23,30.04,29.95,29.85,10,10,5,18,6,23,0.00,3,Rain-Thunderstorm,300
2013-8-3,83,65,47,51,44,33,86,52,17,30.09,30.02,29.94,10,10,10,14,4,18,0.00,1,,282
2013-8-4,85,68,50,52,45,34,83,50,16,30.07,30.00,29.92,10,10,9,15,4,22,0.00,0,,329
2013-8-5,87,67,47,54,46,35,80,49,17,30.04,29.94,29.83,10,10,8,28,6,35,0.05,1,Rain-Thunderstorm,324
2013-8-6,83,66,48,52,45,39,86,54,22,30.05,29.98,29.93,10,10,10,16,4,20,0.00,1,Thunderstorm,151
2013-8-7,86,67,48,43,38,28,68,41,14,30.06,29.95,29.86,10,10,10,17,4,20,0.00,0,,324
2013-8-8,87,69,50,50,44,37,77,49,20,30.03,29.95,29.89,10,10,10,24,4,32,T,1,Thunderstorm,341
2013-8-9,80,68,55,52,49,47,77,56,35,30.12,30.02,29.98,10,10,7,23,8,28,T,1,Rain-Thunderstorm,83
2013-8-10,85,68,50,50,45,36,83,51,18,30.10,30.01,29.94,10,10,10,25,6,30,0.00,0,,200
2013-8-11,81,64,47,46,42,34,71,45,19,30.13,30.02,29.96,10,10,10,28,5,35,0.00,0,,219
2013-8-12,86,65,43,47,40,32,76,46,16,30.10,30.04,29.99,10,10,10,24,7,29,0.00,0,,143
2013-8-13,84,67,50,50,43,36,77,49,21,30.20,30.08,29.98,10,10,7,24,6,33,T,2,Rain,317
2013-8-14,87,65,42,49,41,35,89,53,17,30.12,30.04,29.96,10,10,10,12,5,15,0.00,0,,104
2013-8-15,93,69,45,42,35,21,71,40,8,30.03,29.97,29.88,10,10,10,13,4,15,0.00,0,,125
2013-8-16,97,73,48,42,34,19,61,34,7,29.99,29.90,29.83,10,10,6,16,4,32,0.00,0,,75
2013-8-17,91,70,48,42,37,29,61,36,11,30.13,29.94,29.85,10,10,10,13,5,20,0.00,0,,203
2013-8-18,91,70,48,45,41,34,74,44,14,30.02,29.95,29.86,10,10,10,15,5,21,0.00,0,,45
2013-8-19,93,71,48,43,37,24,77,43,8,30.02,29.94,29.82,10,10,10,15,5,22,0.00,0,,163
2013-8-20,91,68,45,40,33,28,56,34,11,29.99,29.91,29.83,10,10,9,13,5,16,0.00,0,,185
2013-8-21,87,68,48,43,39,34,71,44,16,30.06,30.00,29.95,10,10,9,14,4,20,0.00,0,,132
2013-8-22,91,73,54,50,44,38,66,42,17,30.16,29.98,29.86,10,10,10,25,5,32,T,1,Thunderstorm,222
2013-8-23,83,67,50,54,51,45,83,55,26,30.03,29.90,29.81,10,9,4,38,8,47,0.10,3,Rain-Thunderstorm,183
2013-8-24,84,69,54,56,50,39,86,54,22,30.02,29.90,29.80,10,10,9,30,5,39,0.01,2,Rain,156
2013-8-25,88,68,47,49,45,34,86,51,15,30.04,29.94,29.84,10,10,8,12,3,16,0.00,0,,139
2013-8-26,86,68,50,48,45,39,77,49,20,30.00,29.93,29.86,10,10,10,22,5,29,T,1,,267
2013-8-27,88,69,49,49,44,28,80,49,17,30.04,29.96,29.89,10,10,10,29,6,35,0.00,1,,169
2013-8-28,86,68,49,59,52,45,100,64,27,30.14,29.99,29.88,10,8,1,35,4,46,0.30,3,Rain-Thunderstorm,285
2013-8-29,86,68,50,55,51,47,93,60,27,30.12,30.04,29.93,10,10,10,38,7,47,0.01,1,Rain,130
2013-8-30,91,72,52,54,46,31,86,49,12,30.07,29.99,29.88,10,10,10,20,6,24,0.00,0,,307
2013-8-31,84,65,46,44,41,33,74,46,18,30.12,30.05,29.99,10,10,10,15,5,18,0.00,0,,122